Time;durP1;ratioP1;P1;durP2;ratioP2;P2;SDS_P1;SDS_P2;PMS_P1;PMS_P2;Temp;Humidity;BMP_temperature;BMP_pressure;BME280_temperature;BME280_humidity;BME280_pressure;Samples;Min_cycle;Max_cycle;Signal;HPM_P1;HPM_P2
2023/09/28 00:02:50;;;;;;;4.50;2.30;;;;;;;18.43;100.00;101295.81;5089970;28;20097;-36
2023/09/28 00:05:15;;;;;;;;;;;;;;;18.46;100.00;101298.84;5090322;28;20464;-36
2023/09/28 00:07:42;;;;;;;4.93;2.45;;;;;;;18.36;100.00;101295.25;5090422;28;19912;-36
2023/09/28 00:10:13;;;;;;;3.35;2.40;;;;;;;18.41;100.00;101315.25;5076954;28;20032;-36
2023/09/28 00:12:40;;;;;;;3.50;2.00;;;;;;;18.29;100.00;101301.00;5075822;28;20439;-36
2023/09/28 00:15:08;;;;;;;5.22;2.53;;;;;;;18.30;100.00;101301.81;5076135;28;20039;-36
2023/09/28 00:17:33;;;;;;;2.90;2.20;;;;;;;18.34;100.00;101320.16;5076621;28;20029;-36
2023/09/28 00:19:58;;;;;;;;;;;;;;;18.38;100.00;101325.91;5077073;28;20446;-36
2023/09/28 00:22:24;;;;;;;4.43;2.25;;;;;;;18.29;100.00;101317.41;5076694;28;19913;-36
2023/09/28 00:24:49;;;;;;;;;;;;;;;18.33;100.00;101325.91;5076463;28;20060;-36
2023/09/28 00:27:15;;;;;;;3.05;2.25;;;;;;;18.29;100.00;101325.63;5076231;28;19912;-36
2023/09/28 00:29:40;;;;;;;3.10;2.25;;;;;;;18.23;100.00;101323.97;5075953;28;20458;-36
2023/09/28 00:32:05;;;;;;;;;;;;;;;18.26;100.00;101328.91;5076384;28;20526;-36
2023/09/28 00:34:31;;;;;;;2.50;1.90;;;;;;;18.11;100.00;101315.22;5075840;28;20291;-36
2023/09/28 00:36:56;;;;;;;;;;;;;;;18.20;100.00;101328.09;5076778;28;20025;-36
2023/09/28 00:39:22;;;;;;;2.50;1.70;;;;;;;18.15;100.00;101335.44;5076060;28;19912;-36
2023/09/28 00:41:48;;;;;;;;;;;;;;;18.17;100.00;101339.56;5076492;28;20738;-36
2023/09/28 00:44:13;;;;;;;3.85;2.17;;;;;;;18.14;100.00;101348.31;5075686;28;19912;-36
2023/09/28 00:46:39;;;;;;;;;;;;;;;18.15;100.00;101336.25;5076061;28;20028;-37
2023/09/28 00:49:05;;;;;;;4.95;2.08;;;;;;;18.04;100.00;101326.38;5075583;28;19927;-37
2023/09/28 00:51:33;;;;;;;2.67;2.20;;;;;;;18.03;100.00;101332.97;5075829;28;20032;-37
2023/09/28 00:54:11;;;;;;;2.42;1.75;;;;;;;18.07;100.00;101344.19;5075190;28;20021;-36
2023/09/28 00:56:37;;;;;;;4.18;2.00;;;;;;;18.06;100.00;101340.63;5075870;28;20495;-37
2023/09/28 00:59:02;;;;;;;;;;;;;;;18.08;100.00;101338.44;5076509;28;20048;-37
2023/09/28 01:01:28;;;;;;;5.22;2.10;;;;;;;18.02;100.00;101334.06;5075257;28;19913;-37
2023/09/28 01:03:55;;;;;;;4.60;2.00;;;;;;;17.99;100.00;101332.66;5075852;28;20063;-37
2023/09/28 01:06:21;;;;;;;4.28;2.20;;;;;;;18.02;100.00;101340.34;5075151;28;20024;-37
2023/09/28 01:08:47;;;;;;;;;;;;;;;18.04;100.00;101337.34;5075608;28;20066;-37
2023/09/28 01:11:12;;;;;;;3.33;2.10;;;;;;;18.00;100.00;101345.25;5074801;28;19912;-37
2023/09/28 01:13:39;;;;;;;;;;;;;;;18.01;100.00;101343.38;5075523;28;20024;-37
2023/09/28 01:16:04;;;;;;;3.30;2.45;;;;;;;17.93;100.00;101338.41;5075864;28;19974;-37
2023/09/28 01:18:30;;;;;;;4.43;2.65;;;;;;;17.78;100.00;101322.75;5075244;28;20445;-37
2023/09/28 01:20:57;;;;;;;;;;;;;;;17.94;100.00;101346.31;5074131;28;20400;-37
2023/09/28 01:23:23;;;;;;;3.33;2.38;;;;;;;17.77;100.00;101339.44;5074883;28;19915;-37
2023/09/28 01:25:49;;;;;;;;;;;;;;;17.86;100.00;101344.13;5075593;28;20099;-37
2023/09/28 01:28:18;;;;;;;6.60;2.10;;;;;;;17.66;100.00;101331.13;5074797;28;20308;-37
2023/09/28 01:30:44;;;;;;;2.60;1.98;;;;;;;17.73;100.00;101344.59;5074674;28;20031;-37
2023/09/28 01:33:09;;;;;;;2.28;1.80;;;;;;;17.61;100.00;101341.22;5075025;28;20032;-36
2023/09/28 01:35:35;;;;;;;;;;;;;;;17.67;100.00;101346.47;5075332;28;20036;-37
2023/09/28 01:38:18;;;;;;;3.77;2.27;;;;;;;17.53;100.00;101339.84;5074252;28;19969;-37
2023/09/28 01:40:46;;;;;;;3.28;2.20;;;;;;;17.56;100.00;101346.66;5074857;28;20303;-37
2023/09/28 01:43:12;;;;;;;3.67;2.15;;;;;;;17.43;100.00;101339.78;5074502;28;20369;-37
2023/09/28 01:45:37;;;;;;;;;;;;;;;17.53;100.00;101348.03;5074888;28;20036;-37
2023/09/28 01:48:03;;;;;;;2.77;2.40;;;;;;;17.43;100.00;101359.72;5074213;28;19915;-37
2023/09/28 01:50:29;;;;;;;3.72;2.20;;;;;;;17.30;100.00;101352.00;5074306;28;20312;-37
2023/09/28 01:52:55;;;;;;;;;;;;;;;17.40;100.00;101354.78;5075584;28;20029;-37
2023/09/28 01:55:20;;;;;;;3.70;2.22;;;;;;;17.30;100.00;101352.00;5073945;28;19908;-37
2023/09/28 01:57:45;;;;;;;;;;;;;;;17.35;100.00;101360.22;5075483;28;20087;-37
2023/09/28 02:00:15;;;;;;;3.63;2.50;;;;;;;17.25;100.00;101346.50;5074194;28;19947;-37
2023/09/28 02:02:42;;;;;;;2.85;2.17;;;;;;;17.25;100.00;101352.78;5074393;28;20593;-36
2023/09/28 02:05:08;;;;;;;4.32;2.28;;;;;;;17.21;100.00;101369.97;5074089;28;20115;-37
2023/09/28 02:07:34;;;;;;;;;;;;;;;17.27;100.00;101368.09;5074751;28;20104;-37
2023/09/28 02:10:00;;;;;;;4.30;2.63;;;;;;;17.17;100.00;101366.91;5074495;28;19983;-37
2023/09/28 02:12:27;;;;;;;;;;;;;;;17.23;100.00;101378.75;5075249;28;20058;-37
2023/09/28 02:14:53;;;;;;;5.60;2.60;;;;;;;17.08;100.00;101368.53;5073857;28;19913;-37
2023/09/28 02:17:19;;;;;;;3.50;2.50;;;;;;;17.13;100.00;101387.69;5074628;28;20035;-37
2023/09/28 02:19:44;;;;;;;;;;;;;;;17.17;100.00;101377.84;5074240;28;20032;-35
2023/09/28 02:22:09;;;;;;;5.28;2.50;;;;;;;17.01;100.00;101381.56;5074155;28;19953;-35
2023/09/28 02:24:34;;;;;;;;;;;;;;;17.10;100.00;101384.66;5073940;28;20032;-36
2023/09/28 02:27:00;;;;;;;3.47;2.50;;;;;;;16.99;100.00;101379.09;5074109;28;19908;-37
2023/09/28 02:29:26;;;;;;;;;;;;;;;17.09;100.00;101381.09;5074187;28;20271;-37
2023/09/28 02:31:51;;;;;;;3.67;2.70;;;;;;;16.99;100.00;101367.34;5073495;28;19977;-37
2023/09/28 02:34:16;;;;;;;;;;;;;;;17.05;100.00;101376.41;5074141;28;20036;-37
2023/09/28 02:36:42;;;;;;;3.75;2.33;;;;;;;16.92;100.00;101364.81;5073928;28;19915;-37
2023/09/28 02:39:07;;;;;;;;;;;;;;;17.02;100.00;101377.75;5074066;28;20361;-37
2023/09/28 02:41:33;;;;;;;4.40;2.58;;;;;;;17.03;100.00;101375.81;5073911;28;19908;-37
2023/09/28 02:43:58;;;;;;;;;;;;;;;17.06;100.00;101383.50;5074517;28;20067;-37
2023/09/28 02:46:26;;;;;;;2.85;2.45;;;;;;;16.98;100.00;101393.00;5073306;28;19912;-37
2023/09/28 02:48:51;;;;;;;4.43;2.63;;;;;;;16.95;100.00;101396.28;5073608;28;20083;-37
2023/09/28 02:51:17;;;;;;;;;;;;;;;17.00;100.00;101390.84;5074221;28;20056;-37
2023/09/28 02:53:42;;;;;;;3.58;2.40;;;;;;;16.89;100.00;101380.94;5073787;28;19908;-37
2023/09/28 02:56:08;;;;;;;;;;;;;;;16.99;100.00;101394.66;5073452;28;20064;-37
2023/09/28 02:58:34;;;;;;;5.67;2.90;;;;;;;16.89;100.00;101397.31;5073534;28;19923;-37
2023/09/28 03:01:01;;;;;;;4.22;2.47;;;;;;;16.84;100.00;101384.44;5073357;28;20289;-37
2023/09/28 03:03:26;;;;;;;5.90;2.67;;;;;;;16.76;100.00;101384.09;5073673;28;20162;-37
2023/09/28 03:05:54;;;;;;;;;;;;;;;16.85;100.00;101393.44;5073796;28;20096;-37
2023/09/28 03:08:20;;;;;;;4.55;2.42;;;;;;;16.80;100.00;101396.97;5074175;28;20017;-37
2023/09/28 03:10:45;;;;;;;;;;;;;;;16.82;100.00;101402.16;5074293;28;20070;-37
2023/09/28 03:13:11;;;;;;;5.28;2.22;;;;;;;16.77;100.00;101402.94;5073891;28;19912;-37
2023/09/28 03:15:39;;;;;;;;;;;;;;;16.80;100.00;101404.34;5073684;28;20028;-37
2023/09/28 03:18:05;;;;;;;4.68;2.70;;;;;;;16.68;100.00;101404.44;5073457;28;20009;-37
2023/09/28 03:20:30;;;;;;;;;;;;;;;16.69;100.00;101404.22;5073706;28;20473;-37
2023/09/28 03:22:56;;;;;;;3.95;2.50;;;;;;;16.63;100.00;101407.94;5073482;28;19999;-37
2023/09/28 03:25:22;;;;;;;;;;;;;;;16.69;100.00;101417.03;5073373;28;20025;-37
2023/09/28 03:27:52;;;;;;;3.85;2.97;;;;;;;16.62;100.00;101419.94;5072944;28;19908;-37
2023/09/28 03:30:24;;;;;;;3.78;2.92;;;;;;;16.57;100.00;101408.97;5073168;28;20036;-37
2023/09/28 03:32:49;;;;;;;3.88;2.92;;;;;;;16.56;100.00;101415.53;5073077;28;20063;-37
2023/09/28 03:35:16;;;;;;;;;;;;;;;16.68;100.00;101423.56;5073203;28;20052;-35
2023/09/28 03:37:42;;;;;;;5.07;3.00;;;;;;;16.59;100.00;101417.75;5072745;28;19919;-36
2023/09/28 03:40:10;;;;;;;3.33;2.60;;;;;;;16.69;100.00;101434.25;5073078;28;20024;-37
2023/09/28 03:42:40;;;;;;;3.83;2.88;;;;;;;16.70;100.00;101440.53;5073324;28;20024;-37
2023/09/28 03:45:11;;;;;;;4.68;2.85;;;;;;;16.62;100.00;101430.06;5076263;28;20025;-37
2023/09/28 03:47:40;;;;;;;3.72;3.03;;;;;;;16.66;100.00;101442.94;5077046;28;20118;-37
2023/09/28 03:50:09;;;;;;;3.40;2.60;;;;;;;16.67;100.00;101454.69;5076895;28;20483;-37
2023/09/28 03:52:37;;;;;;;4.30;2.75;;;;;;;16.69;100.00;101455.28;5077500;28;20028;-37
2023/09/28 03:55:03;;;;;;;8.18;3.65;;;;;;;16.65;100.00;101451.41;5076255;28;20036;-37
2023/09/28 03:57:29;;;;;;;4.18;3.22;;;;;;;16.60;100.00;101445.88;5076793;28;20040;-37
2023/09/28 03:59:54;;;;;;;;;;;;;;;16.73;100.00;101456.41;5076925;28;20473;-37
2023/09/28 04:02:20;;;;;;;5.35;2.97;;;;;;;16.59;100.00;101453.25;5076753;28;19908;-37
2023/09/28 04:04:45;;;;;;;;;;;;;;;16.66;100.00;101463.97;5076830;28;20028;-37
2023/09/28 04:07:11;;;;;;;3.37;3.00;;;;;;;16.64;100.00;101469.69;5076674;28;20017;-37
2023/09/28 04:09:36;;;;;;;;;;;;;;;16.66;100.00;101464.78;5076762;28;20811;-37
2023/09/28 04:12:01;;;;;;;5.93;2.90;;;;;;;16.57;100.00;101460.84;5076606;28;19908;-37
2023/09/28 04:14:27;;;;;;;;;;;;;;;16.60;100.00;101459.53;5076701;28;20266;-37
2023/09/28 04:16:52;;;;;;;4.63;2.97;;;;;;;16.41;100.00;101448.13;5076452;28;19916;-37
2023/09/28 04:19:18;;;;;;;;;;;;;;;16.51;100.00;101455.59;5076366;28;20434;-37
2023/09/28 04:21:43;;;;;;;4.57;3.00;;;;;;;16.41;100.00;101459.84;5076390;28;19995;-37
2023/09/28 04:24:08;;;;;;;;;;;;;;;16.44;100.00;101456.59;5076503;28;20291;-37
2023/09/28 04:26:34;;;;;;;3.77;3.07;;;;;;;16.25;100.00;101462.63;5076398;28;20387;-37
2023/09/28 04:28:59;;;;;;;;;;;;;;;16.33;100.00;101456.75;5076428;28;20723;-37
2023/09/28 04:31:25;;;;;;;4.47;3.30;;;;;;;16.16;100.00;101459.56;5075910;28;19955;-37
2023/09/28 04:33:50;;;;;;;;;;;;;;;16.22;100.00;101453.91;5076707;28;20266;-37
2023/09/28 04:36:16;;;;;;;4.07;3.40;;;;;;;16.02;100.00;101452.81;5075507;28;19923;-37
2023/09/28 04:38:42;;;;;;;4.68;3.45;;;;;;;16.02;100.00;101469.19;5075752;28;20035;-37
2023/09/28 04:41:08;;;;;;;4.82;3.35;;;;;;;15.98;100.00;101471.59;5075506;28;20033;-37
2023/09/28 04:43:33;;;;;;;;;;;;;;;16.09;100.00;101480.72;5076171;28;20480;-37
2023/09/28 04:46:04;;;;;;;5.03;3.45;;;;;;;16.02;100.00;101480.91;5076209;28;19953;-37
2023/09/28 04:48:30;;;;;;;4.85;3.33;;;;;;;15.96;100.00;101473.75;5075943;28;20025;-37
2023/09/28 04:50:55;;;;;;;;;;;;;;;16.02;100.00;101482.81;5075583;28;20035;-37
2023/09/28 04:53:20;;;;;;;4.63;3.10;;;;;;;15.93;100.00;101488.69;5075821;28;19943;-37
2023/09/28 04:55:45;;;;;;;;;;;;;;;15.98;100.00;101489.84;5075524;28;20282;-37
2023/09/28 04:58:11;;;;;;;4.00;3.17;;;;;;;15.82;100.00;101481.44;5075361;28;20357;-37
2023/09/28 05:00:37;;;;;;;5.15;3.47;;;;;;;15.80;100.00;101490.94;5075401;28;20818;-37
2023/09/28 05:03:03;;;;;;;;;;;;;;;15.84;100.00;101492.94;5076104;28;20472;-37
2023/09/28 05:05:29;;;;;;;4.78;4.03;;;;;;;15.80;100.00;101510.03;5075301;28;19951;-37
2023/09/28 05:07:54;;;;;;;;;;;;;;;15.82;100.00;101513.34;5075756;28;20063;-37
2023/09/28 05:10:19;;;;;;;4.17;3.40;;;;;;;15.82;100.00;101514.19;5075129;28;19919;-37
2023/09/28 05:12:44;;;;;;;;;;;;;;;15.83;100.00;101523.19;5075496;28;20265;-37
2023/09/28 05:15:10;;;;;;;7.18;3.80;;;;;;;15.82;100.00;101530.53;5075271;28;19912;-37
2023/09/28 05:17:35;;;;;;;;;;;;;;;15.84;100.00;101535.75;5075915;28;20028;-37
2023/09/28 05:20:01;;;;;;;4.78;3.40;;;;;;;15.77;100.00;101544.09;5074937;28;19919;-37
2023/09/28 05:22:26;;;;;;;;;;;;;;;15.81;100.00;101545.25;5076150;28;20029;-37
2023/09/28 05:24:53;;;;;;;5.55;3.90;;;;;;;15.61;100.00;101534.78;5074496;28;19935;-37
2023/09/28 05:27:19;;;;;;;4.30;3.72;;;;;;;15.60;100.00;101541.31;5075104;28;20149;-37
2023/09/28 05:29:44;;;;;;;5.20;3.63;;;;;;;15.59;100.00;101550.59;5075078;28;20123;-37
2023/09/28 05:32:10;;;;;;;;;;;;;;;15.64;100.00;101556.16;5075183;28;20028;-37
2023/09/28 05:34:36;;;;;;;4.65;3.58;;;;;;;15.53;100.00;101553.47;5074282;28;20361;-37
2023/09/28 05:37:01;;;;;;;5.70;3.65;;;;;;;15.63;100.00;101548.19;5074648;28;20067;-37
2023/09/28 05:39:26;;;;;;;;;;;;;;;15.64;100.00;101553.44;5075027;28;20031;-37
2023/09/28 05:41:52;;;;;;;5.93;4.15;;;;;;;15.55;100.00;101556.78;5075154;28;19991;-37
2023/09/28 05:44:18;;;;;;;6.75;4.57;;;;;;;15.43;100.00;101551.41;5074514;28;20535;-37
2023/09/28 05:46:43;;;;;;;;;;;;;;;15.58;100.00;101561.75;5075497;28;20032;-37
2023/09/28 05:49:08;;;;;;;7.30;4.10;;;;;;;15.58;100.00;101568.03;5074150;28;20284;-37
2023/09/28 05:51:34;;;;;;;;;;;;;;;15.62;100.00;101571.91;5074898;28;20276;-37
2023/09/28 05:53:59;;;;;;;8.20;4.00;;;;;;;15.58;100.00;101572.66;5074052;28;19916;-37
2023/09/28 05:56:24;;;;;;;;;;;;;;;15.62;100.00;101577.38;5075087;28;20036;-37
2023/09/28 05:58:50;;;;;;;9.30;4.80;;;;;;;15.57;100.00;101576.44;5074719;28;19916;-37
2023/09/28 06:01:16;;;;;;;;;;;;;;;15.66;100.00;101596.78;5074669;28;20302;-37
2023/09/28 06:03:43;;;;;;;7.80;4.00;;;;;;;15.61;100.00;101594.75;5074209;28;19965;-37
2023/09/28 06:06:16;;;;;;;6.50;4.60;;;;;;;15.62;100.00;101606.53;5074693;28;20401;-37
2023/09/28 06:08:42;;;;;;;9.32;4.80;;;;;;;15.59;100.00;101602.38;5074310;28;20443;-37
2023/09/28 06:11:15;;;;;;;5.63;4.20;;;;;;;15.60;100.00;101606.75;5074105;28;20107;-37
2023/09/28 06:13:41;;;;;;;7.18;4.40;;;;;;;15.51;100.00;101596.50;5073980;28;20055;-37
2023/09/28 06:16:08;;;;;;;8.30;4.90;;;;;;;15.46;100.00;101591.78;5074176;28;20032;-37
2023/09/28 06:18:35;;;;;;;10.40;4.65;;;;;;;15.42;100.00;101583.28;5073885;28;20028;-37
2023/09/28 06:21:00;;;;;;;7.93;4.22;;;;;;;15.47;100.00;101596.19;5073991;28;20082;-37
2023/09/28 06:23:26;;;;;;;6.38;4.55;;;;;;;15.44;100.00;101583.84;5074700;28;20411;-36
2023/09/28 06:25:52;;;;;;;;;;;;;;;15.55;100.00;101600.38;5074440;28;20107;-37
2023/09/28 06:28:17;;;;;;;6.50;4.53;;;;;;;15.49;100.00;101606.81;5073809;28;19916;-37
2023/09/28 06:30:42;;;;;;;;;;;;;;;15.57;100.00;101614.63;5074206;28;20028;-37
2023/09/28 06:33:08;;;;;;;6.38;4.55;;;;;;;15.53;100.00;101622.44;5073735;28;19908;-37
2023/09/28 06:35:33;;;;;;;;;;;;;;;15.62;100.00;101623.72;5074691;28;20020;-37
2023/09/28 06:38:00;;;;;;;9.83;4.80;;;;;;;15.64;100.00;101629.75;5074210;28;19955;-37
2023/09/28 06:40:26;;;;;;;7.90;4.93;;;;;;;15.65;100.00;101625.94;5073287;28;20404;-37
2023/09/28 06:42:51;;;;;;;7.50;4.50;;;;;;;15.68;100.00;101630.09;5074204;28;20056;-37
2023/09/28 06:45:16;;;;;;;;;;;;;;;15.81;100.00;101623.50;5074038;28;20040;-37
2023/09/28 06:47:42;;;;;;;9.23;4.67;;;;;;;15.72;100.00;101601.28;5073644;28;19908;-37
2023/09/28 06:50:09;;;;;;;9.30;4.32;;;;;;;15.82;100.00;101627.91;5074064;28;20799;-37
2023/09/28 06:52:34;;;;;;;12.75;4.90;;;;;;;15.83;100.00;101622.19;5074079;28;20033;-37
2023/09/28 06:55:00;;;;;;;9.10;4.88;;;;;;;15.88;100.00;101624.16;5073494;28;20025;-37
2023/09/28 06:57:25;;;;;;;;;;;;;;;16.02;100.00;101647.31;5074420;28;20448;-37
2023/09/28 06:59:50;;;;;;;8.80;4.07;;;;;;;16.00;100.00;101646.72;5073849;28;19916;-37
2023/09/28 07:02:16;;;;;;;;;;;;;;;16.13;100.00;101642.84;5074136;28;20314;-37
2023/09/28 07:04:41;;;;;;;14.73;5.20;;;;;;;16.08;100.00;101640.03;5073907;28;19923;-37
2023/09/28 07:07:06;;;;;;;;;;;;;;;16.18;100.00;101665.59;5074404;28;20780;-37
2023/09/28 07:09:32;;;;;;;10.13;4.07;;;;;;;16.14;100.00;101667.16;5073888;28;19995;-37
2023/09/28 07:11:57;;;;;;;;;;;;;;;16.26;100.00;101660.81;5074680;28;20266;-37
2023/09/28 07:14:23;;;;;;;9.93;3.77;;;;;;;16.25;100.00;101653.66;5073649;28;20364;-37
2023/09/28 07:16:48;;;;;;;;;;;;;;;16.43;100.00;101661.59;5073926;28;20624;-37
2023/09/28 07:19:13;;;;;;;14.23;4.30;;;;;;;16.38;100.00;101645.97;5074738;28;20365;-37
2023/09/28 07:21:38;;;;;;;;;;;;;;;16.57;100.00;101651.97;5077515;28;20758;-37
2023/09/28 07:24:04;;;;;;;16.60;4.03;;;;;;;16.56;100.00;101658.53;5077489;28;20288;-37
2023/09/28 07:26:29;;;;;;;;;;;;;;;16.62;100.00;101659.41;5078209;28;20102;-37
2023/09/28 07:28:55;;;;;;;17.83;3.72;;;;;;;16.54;100.00;101644.28;5077449;28;19923;-37
2023/09/28 07:31:21;;;;;;;;;;;;;;;16.60;100.00;101646.03;5077518;28;20020;-37
2023/09/28 07:33:48;;;;;;;14.95;3.65;;;;;;;16.50;100.00;101667.72;5078194;28;19912;-37
2023/09/28 07:36:14;;;;;;;12.40;3.75;;;;;;;16.46;100.00;101658.38;5077238;28;20036;-36
2023/09/28 07:38:40;;;;;;;14.95;3.55;;;;;;;16.46;100.00;101669.28;5076900;28;20025;-37
2023/09/28 07:41:05;;;;;;;;;;;;;;;16.60;100.00;101683.44;5078148;28;20024;-37
2023/09/28 07:43:31;;;;;;;17.08;4.10;;;;;;;16.60;100.00;101667.88;5076848;28;20380;-37
2023/09/28 07:45:56;;;;;;;;;;;;;;;16.71;100.00;101674.28;5077175;28;20028;-37
2023/09/28 07:48:21;;;;;;;13.27;3.67;;;;;;;16.77;100.00;101680.69;5076744;28;19916;-37
2023/09/28 07:50:47;;;;;;;;;;;;;;;16.84;100.00;101686.81;5077111;28;20028;-37
2023/09/28 07:53:12;;;;;;;14.47;3.80;;;;;;;16.89;100.00;101689.59;5076972;28;19934;-37
2023/09/28 07:55:37;;;;;;;;;;;;;;;17.00;100.00;101683.19;5109531;28;20267;-37
2023/09/28 07:58:03;;;;;;;15.60;4.22;;;;;;;17.02;100.00;101691.94;5077104;28;19916;-37
2023/09/28 08:00:28;;;;;;;;;;;;;;;17.12;100.00;101704.91;5076612;28;20387;-37
2023/09/28 08:02:55;;;;;;;17.95;3.92;;;;;;;17.14;100.00;101703.59;5076870;28;19967;-37
2023/09/28 08:05:21;;;;;;;18.73;4.35;;;;;;;17.18;100.00;101710.22;5076402;28;20108;-37
2023/09/28 08:07:48;;;;;;;15.27;3.88;;;;;;;17.27;100.00;101707.00;5076984;28;20054;-37
2023/09/28 08:10:14;;;;;;;13.23;3.53;;;;;;;17.33;100.00;101692.34;5076909;28;20346;-37
2023/09/28 08:12:39;;;;;;;;;;;;;;;17.53;100.00;101702.69;5077036;28;20024;-37
2023/09/28 08:15:05;;;;;;;17.27;4.18;;;;;;;17.58;100.00;101708.22;5076314;28;20431;-37
2023/09/28 08:17:33;;;;;;;14.70;3.65;;;;;;;17.61;100.00;101711.22;5077013;28;20025;-37
2023/09/28 08:19:58;;;;;;;14.77;4.05;;;;;;;17.66;100.00;101714.03;5076176;28;20028;-37
2023/09/28 08:22:24;;;;;;;;;;;;;;;17.81;100.00;101709.81;5076854;28;20529;-37
2023/09/28 08:24:50;;;;;;;18.73;7.05;;;;;;;17.87;100.00;101700.59;5075981;28;19908;-37
2023/09/28 08:27:16;;;;;;;;;;;;;;;17.99;100.00;101702.06;5077039;28;20378;-37
2023/09/28 08:29:42;;;;;;;11.48;3.50;;;;;;;17.94;100.00;101707.50;5075562;28;20284;-37
2023/09/28 08:32:08;;;;;;;;;;;;;;;17.95;100.00;101722.84;5077284;28;20029;-37
2023/09/28 08:34:34;;;;;;;15.90;3.85;;;;;;;17.92;100.00;101722.53;5076470;28;19915;-37
2023/09/28 08:37:01;;;;;;;14.90;4.15;;;;;;;17.98;100.00;101716.03;5076361;28;20024;-37
2023/09/28 08:39:29;;;;;;;16.25;4.10;;;;;;;17.98;100.00;101718.78;5075802;28;20043;-37
2023/09/28 08:41:58;;;;;;;14.68;3.70;;;;;;;17.98;100.00;101726.97;5076094;28;20029;-37
2023/09/28 08:44:26;;;;;;;13.52;3.95;;;;;;;18.01;100.00;101737.41;5075722;28;20036;-37
2023/09/28 08:46:57;;;;;;;18.17;4.65;;;;;;;18.00;100.00;101754.91;5076251;28;20025;-37
2023/09/28 08:49:25;;;;;;;14.50;3.75;;;;;;;17.99;100.00;101766.94;5075945;28;20032;-37
2023/09/28 08:51:54;;;;;;;16.92;4.95;;;;;;;17.93;100.00;101754.28;5075919;28;20074;-37
2023/09/28 08:54:22;;;;;;;15.23;3.95;;;;;;;17.91;100.00;101754.56;5075481;28;20028;-37
2023/09/28 08:56:48;;;;;;;14.98;4.20;;;;;;;17.96;100.00;101762.00;5075419;28;20047;-37
2023/09/28 08:59:16;;;;;;;16.05;4.30;;;;;;;18.10;100.00;101763.19;5075262;28;20120;-37
2023/09/28 09:01:42;;;;;;;16.25;3.97;;;;;;;18.15;100.00;101754.22;5076018;28;20060;-37
2023/09/28 09:04:08;;;;;;;;;;;;;;;18.31;100.00;101752.47;5075830;28;20082;-37
2023/09/28 09:06:33;;;;;;;14.52;3.88;;;;;;;18.16;100.00;101748.50;5075291;28;19913;-37
2023/09/28 09:09:03;;;;;;;;;;;;;;;18.28;100.00;101754.63;5076335;28;20040;-36
2023/09/28 09:11:33;;;;;;;21.13;4.13;;;;;;;18.46;100.00;101747.13;5075181;28;20015;-36
2023/09/28 09:13:59;;;;;;;18.17;4.07;;;;;;;18.61;100.00;101763.66;5073969;28;20024;-36
2023/09/28 09:16:27;;;;;;;12.85;3.72;;;;;;;18.63;100.00;101756.00;5075338;28;20024;-36
2023/09/28 09:18:53;;;;;;;14.15;3.90;;;;;;;18.72;100.00;101748.16;5074721;28;20024;-36
2023/09/28 09:21:19;;;;;;;18.45;4.25;;;;;;;18.95;100.00;101753.22;5075290;28;20048;-36
2023/09/28 09:24:04;;;;;;;;;;;;;;;19.10;100.00;101759.91;5075500;28;20489;-36
2023/09/28 09:26:41;;;;;;;14.27;3.92;;;;;;;19.23;100.00;101754.75;5074560;28;19916;-36
2023/09/28 09:29:08;;;;;;;15.75;3.95;;;;;;;19.30;100.00;101751.78;5075172;28;20380;-36
2023/09/28 09:31:36;;;;;;;13.68;3.65;;;;;;;19.33;100.00;101751.25;5074771;28;20039;-36
2023/09/28 09:34:05;;;;;;;15.10;3.50;;;;;;;19.45;100.00;101761.97;5075130;28;20021;-36
2023/09/28 09:36:31;;;;;;;21.40;4.70;;;;;;;19.48;100.00;101762.28;5074933;28;20465;-36
2023/09/28 09:38:58;;;;;;;;;;;;;;;19.64;100.00;101759.59;5075116;28;20060;-36
2023/09/28 09:41:24;;;;;;;13.20;3.53;;;;;;;19.54;100.00;101765.84;5073499;28;19939;-36
2023/09/28 09:43:51;;;;;;;11.82;3.97;;;;;;;19.47;100.00;101762.53;5075153;28;20025;-36
2023/09/28 09:46:17;;;;;;;14.55;3.33;;;;;;;19.49;100.00;101765.84;5074478;28;20033;-36
2023/09/28 09:48:43;;;;;;;;;;;;;;;19.72;100.00;101768.16;5074951;28;20082;-36
2023/09/28 09:51:14;;;;;;;12.60;3.63;;;;;;;19.53;100.00;101776.00;5074995;28;19950;-36
2023/09/28 09:53:41;;;;;;;14.90;3.90;;;;;;;19.41;99.89;101774.56;5074933;28;20025;-36
2023/09/28 09:56:07;;;;;;;15.07;4.00;;;;;;;19.42;100.00;101765.25;5073977;28;20024;-36
2023/09/28 09:58:47;;;;;;;12.45;3.75;;;;;;;19.49;100.00;101769.41;5074409;28;20054;-36
2023/09/28 10:01:15;;;;;;;14.50;3.95;;;;;;;19.47;100.00;101771.59;5074997;28;20028;-36
2023/09/28 10:03:50;;;;;;;14.65;4.30;;;;;;;19.48;100.00;101767.75;5075029;28;20035;-36
2023/09/28 10:06:17;;;;;;;17.30;3.95;;;;;;;19.58;100.00;101760.66;5074625;28;20021;-37
2023/09/28 10:08:45;;;;;;;18.17;4.13;;;;;;;19.50;100.00;101767.47;5074648;28;20020;-36
2023/09/28 10:11:11;;;;;;;17.00;4.10;;;;;;;19.58;100.00;101761.47;5074025;28;20115;-36
2023/09/28 10:13:37;;;;;;;15.80;3.75;;;;;;;19.56;99.76;101752.69;5073803;28;20465;-37
2023/09/28 10:16:04;;;;;;;13.52;3.05;;;;;;;19.51;100.00;101753.50;5073977;28;20158;-36
2023/09/28 10:18:32;;;;;;;16.35;4.15;;;;;;;19.40;98.83;101748.25;5074028;28;20054;-36
2023/09/28 10:21:02;;;;;;;16.55;3.75;;;;;;;19.25;100.00;101733.38;5073497;28;20519;-36
2023/09/28 10:23:28;;;;;;;13.80;4.18;;;;;;;19.27;100.00;101722.13;5074473;28;20101;-36
2023/09/28 10:25:57;;;;;;;11.48;3.15;;;;;;;19.48;100.00;101720.31;5073481;28;20024;-36
2023/09/28 10:28:23;;;;;;;17.92;4.30;;;;;;;19.70;100.00;101729.16;5073850;28;20032;-36
2023/09/28 10:31:14;;;;;;;13.00;3.70;;;;;;;19.95;100.00;101733.88;5073400;28;20052;-36
2023/09/28 10:34:03;;;;;;;14.23;3.97;;;;;;;20.01;99.21;101716.34;5074323;28;20373;-36
2023/09/28 10:36:28;;;;;;;17.80;4.40;;;;;;;20.16;99.62;101737.50;5074237;28;20028;-36
2023/09/28 10:39:14;;;;;;;13.18;3.72;;;;;;;20.23;100.00;101738.03;5074479;28;20107;-36
2023/09/28 10:41:43;;;;;;;14.57;4.00;;;;;;;20.26;98.34;101740.22;5073616;28;20044;-36
2023/09/28 10:44:13;;;;;;;13.73;4.18;;;;;;;20.46;100.00;101739.41;5074541;28;20020;-36
2023/09/28 10:46:42;;;;;;;11.02;3.53;;;;;;;20.74;99.62;101735.28;5073566;28;20020;-36
2023/09/28 10:49:08;;;;;;;16.10;4.22;;;;;;;20.79;94.71;101749.03;5073913;28;20037;-36
2023/09/28 10:51:33;;;;;;;11.70;3.70;;;;;;;20.91;93.78;101747.88;5073541;28;20053;-37
2023/09/28 10:54:04;;;;;;;12.20;3.50;;;;;;;20.85;94.38;101747.09;5073628;28;20480;-36
2023/09/28 10:56:29;;;;;;;13.95;3.60;;;;;;;20.82;93.72;101745.69;5073687;28;20354;-36
2023/09/28 10:58:56;;;;;;;14.85;3.75;;;;;;;20.71;91.50;101746.00;5073698;28;20071;-36
2023/09/28 11:01:22;;;;;;;12.30;3.78;;;;;;;20.65;93.31;101749.88;5073077;28;20076;-36
2023/09/28 11:03:50;;;;;;;11.02;3.03;;;;;;;20.46;92.32;101761.38;5073716;28;20025;-36
2023/09/28 11:06:16;;;;;;;15.05;4.07;;;;;;;20.32;94.05;101761.09;5073071;28;20028;-36
2023/09/28 11:08:42;;;;;;;11.43;3.47;;;;;;;20.15;94.81;101759.72;5073395;28;20508;-36
2023/09/28 11:11:08;;;;;;;11.98;3.88;;;;;;;20.07;94.99;101769.31;5073596;28;20029;-36
2023/09/28 11:13:34;;;;;;;12.73;3.17;;;;;;;20.06;95.95;101781.41;5073656;28;20029;-36
2023/09/28 11:16:00;;;;;;;12.73;3.47;;;;;;;20.03;95.67;101776.44;5074087;28;20062;-36
2023/09/28 11:18:26;;;;;;;10.77;3.05;;;;;;;20.04;96.95;101769.84;5073833;28;20074;-36
2023/09/28 11:20:55;;;;;;;10.73;3.28;;;;;;;20.16;98.07;101767.69;5072938;28;20048;-36
2023/09/28 11:23:20;;;;;;;12.18;3.30;;;;;;;20.11;97.67;101753.13;5073521;28;20032;-36
2023/09/28 11:25:46;;;;;;;15.07;4.40;;;;;;;20.13;96.74;101770.16;5073241;28;20024;-36
2023/09/28 11:28:12;;;;;;;13.50;4.10;;;;;;;20.16;97.57;101764.94;5073195;28;20465;-36
2023/09/28 11:30:38;;;;;;;12.40;3.92;;;;;;;20.22;96.93;101758.34;5073203;28;20142;-36
2023/09/28 11:33:04;;;;;;;14.98;3.78;;;;;;;20.33;96.13;101764.66;5073719;28;20024;-36